Main page
METAR-TAF:

METAR-TAF

Airports :

Bournemouth Airport

Bournemouth, England

latitude: 50-47N, longitude: 001-50W, elevation: 11 m

Current weather observation

The report was made 31 minutes ago, at 20:20 UTC
Wind 9 kt from the West
Temperature 16°C
Humidity 68%
Pressure 1009 hPa
Visibility 10 km or more
Few clouds at a height of 2400 ft

METAR: EGHH 282020Z 27009KT 9999 FEW024 16/10 Q1009

Time: 21:51 (20:51 UTC)

Forecast

The report was made 3 hours and 58 minutes ago, at 16:53 UTC
Forecast valid from 28 at 16 UTC to 28 at 21 UTC
Wind 9 kt from the West/Southwest
Visibility 10 km or more
Scattered clouds at a height of 2500 ft
Temporary
from 28 at 16 UTC to 28 at 19 UTC
Visibility: 7000 m
rain showers
Probability 30% :
Temporary
from 28 at 16 UTC to 28 at 18 UTC
Wind 18 kt from variable directions with gusts up to 30 kt
Visibility: 4000 m
heavy rain showers

TAF: EGHH 281653Z 2816/2821 24009KT 9999 SCT025 TEMPO 2816/2819 7000 SHRA PROB30 TEMPO 2816/2818 VRB18G30KT 4000 +SHRA

Weather observations and forecasts of more than 4000 airports (METAR and TAF reports).

The available stations are represented by yellow and red dots on the map.

Hover mouse over dot to see the name of the station.

Then click to see weather observations and forecasts.

To change the map : click on the green buttons with a black cross to zoom in, on the green button with a dash to zoom out, or on the green arrows for adjacent maps.


METAR-TAF: